Time;durP1;ratioP1;P1;durP2;ratioP2;P2;SDS_P1;SDS_P2;PMS_P1;PMS_P2;Temp;Humidity;BMP_temperature;BMP_pressure;BME280_temperature;BME280_humidity;BME280_pressure;Samples;Min_cycle;Max_cycle;Signal;HPM_P1;HPM_P2
2022/04/15 00:00:43;;;;;;;13.70;5.03;;;8.90;99.90;;;;;;4879260;29;20048;-88
2022/04/15 00:03:11;;;;;;;13.13;5.30;;;8.30;99.90;;;;;;4896281;29;20033;-87
2022/04/15 00:05:40;;;;;;;14.35;5.07;;;8.30;99.90;;;;;;4893952;29;20059;-87
2022/04/15 00:08:07;;;;;;;13.20;5.45;;;8.30;99.90;;;;;;4862243;29;20056;-87
2022/04/15 00:10:34;;;;;;;15.20;5.13;;;8.30;99.90;;;;;;4893669;29;20265;-87
2022/04/15 00:13:01;;;;;;;12.85;5.43;;;8.30;99.90;;;;;;4868057;29;20047;-87
2022/04/15 00:15:29;;;;;;;14.35;5.13;;;8.50;99.90;;;;;;4892407;29;20145;-88
2022/04/15 00:17:58;;;;;;;12.73;5.50;;;8.40;99.90;;;;;;4892301;29;20032;-87
2022/04/15 00:20:35;;;;;;;12.38;5.38;;;8.30;99.90;;;;;;4873663;29;20045;-88
2022/04/15 00:23:01;;;;;;;12.27;4.97;;;8.40;99.90;;;;;;4890630;29;20079;-87
2022/04/15 00:25:26;;;;;;;10.57;5.30;;;8.50;99.90;;;;;;4877780;29;20085;-88
2022/04/15 00:27:52;;;;;;;10.63;5.03;;;8.40;99.90;;;;;;4876849;29;20127;-87
2022/04/15 00:30:19;;;;;;;12.63;5.47;;;9.00;99.90;;;;;;4893155;29;20637;-88
2022/04/15 00:32:45;;;;;;;11.45;5.13;;;8.40;99.90;;;;;;4877507;29;20043;-87
2022/04/15 00:35:10;;;;;;;11.40;4.82;;;8.40;99.90;;;;;;4879443;29;20037;-87
2022/04/15 00:37:37;;;;;;;12.48;4.85;;;8.40;99.90;;;;;;4892153;29;20044;-87
2022/04/15 00:40:06;;;;;;;10.32;4.63;;;8.40;99.90;;;;;;4901172;29;20131;-87
2022/04/15 00:42:32;;;;;;;11.88;4.30;;;8.40;99.90;;;;;;4877655;29;20490;-88
2022/04/15 00:44:58;;;;;;;11.75;4.60;;;8.40;99.90;;;;;;4893247;29;20072;-87
2022/04/15 00:47:24;;;;;;;10.38;4.13;;;8.40;99.90;;;;;;4873034;29;20041;-88
2022/04/15 00:49:50;;;;;;;10.10;4.53;;;8.50;99.90;;;;;;4892781;29;20040;-88
2022/04/15 00:52:20;;;;;;;9.07;3.95;;;8.50;99.90;;;;;;4875807;29;20111;-87
2022/04/15 00:54:50;;;;;;;13.05;4.40;;;8.50;99.90;;;;;;4901548;29;20238;-87
2022/04/15 00:57:22;;;;;;;10.93;4.57;;;8.80;99.90;;;;;;4894123;29;20103;-87
2022/04/15 00:59:49;;;;;;;10.68;3.88;;;8.10;99.90;;;;;;4857139;29;20503;-87
2022/04/15 01:02:17;;;;;;;10.48;3.80;;;8.60;99.90;;;;;;4892091;29;20051;-87
2022/04/15 01:04:44;;;;;;;13.00;3.92;;;8.60;99.90;;;;;;4875232;29;20485;-88
2022/04/15 01:07:14;;;;;;;11.05;4.10;;;8.80;99.90;;;;;;4891196;29;20088;-87
2022/04/15 01:09:43;;;;;;;12.27;3.97;;;8.60;99.90;;;;;;4894560;29;20477;-87
2022/04/15 01:12:10;;;;;;;11.70;4.03;;;8.60;99.90;;;;;;4876767;29;20052;-88
2022/04/15 01:14:38;;;;;;;12.75;3.97;;;8.60;99.90;;;;;;4876771;29;20033;-88
2022/04/15 01:17:04;;;;;;;11.80;3.95;;;8.60;99.90;;;;;;4908381;29;20412;-88
2022/04/15 01:19:30;;;;;;;11.30;3.95;;;8.60;99.90;;;;;;4879534;29;20052;-88
2022/04/15 01:21:56;;;;;;;11.88;4.10;;;8.60;99.90;;;;;;4862699;29;20417;-88
2022/04/15 01:24:23;;;;;;;12.38;3.88;;;8.60;99.90;;;;;;4872929;29;20053;-87
2022/04/15 01:26:49;;;;;;;11.20;3.80;;;8.60;99.90;;;;;;4876271;29;20049;-87
2022/04/15 01:29:15;;;;;;;11.30;3.60;;;8.60;99.90;;;;;;4875364;29;20241;-87
2022/04/15 01:31:41;;;;;;;12.85;3.80;;;8.70;99.90;;;;;;4872713;29;20193;-88
2022/04/15 01:34:07;;;;;;;11.35;3.88;;;8.60;99.90;;;;;;4877600;29;20041;-86
2022/04/15 01:36:32;;;;;;;13.85;4.20;;;8.80;99.90;;;;;;4860521;29;20047;-87
2022/04/15 01:39:00;;;;;;;11.70;3.75;;;8.70;99.90;;;;;;4858066;29;20048;-86
2022/04/15 01:41:26;;;;;;;11.75;3.70;;;8.70;99.90;;;;;;4876573;29;20410;-87
2022/04/15 01:43:51;;;;;;;12.15;4.35;;;8.70;99.90;;;;;;4908941;29;20036;-87
2022/04/15 01:46:17;;;;;;;10.50;4.47;;;8.70;99.90;;;;;;4880315;29;20037;-88
2022/04/15 01:48:43;;;;;;;14.68;4.68;;;8.70;99.90;;;;;;4879611;29;20407;-88
2022/04/15 01:51:09;;;;;;;11.40;4.25;;;8.60;99.90;;;;;;4881929;29;20037;-87
2022/04/15 01:53:34;;;;;;;12.77;4.35;;;8.70;99.90;;;;;;4894163;29;20359;-87
2022/04/15 01:56:00;;;;;;;11.98;4.60;;;8.70;99.90;;;;;;4863421;29;20596;-87
2022/04/15 01:58:26;;;;;;;12.52;4.05;;;8.60;99.90;;;;;;4878443;29;20041;-88
2022/04/15 02:00:51;;;;;;;14.25;4.35;;;10.30;99.90;;;;;;4879214;29;20052;-88
2022/04/15 02:03:17;;;;;;;14.05;4.63;;;8.60;99.90;;;;;;4879087;29;20438;-88
2022/04/15 02:05:43;;;;;;;13.48;4.78;;;8.70;99.90;;;;;;4880817;29;20077;-88
2022/04/15 02:08:08;;;;;;;13.95;4.97;;;8.70;99.90;;;;;;4879033;29;20040;-87
2022/04/15 02:10:34;;;;;;;14.30;5.35;;;8.70;99.90;;;;;;4879392;29;20045;-87
2022/04/15 02:13:00;;;;;;;13.65;4.85;;;8.60;99.90;;;;;;4880142;29;20033;-87
2022/04/15 02:15:26;;;;;;;13.30;5.03;;;8.60;99.90;;;;;;4864741;29;20254;-88
2022/04/15 02:17:54;;;;;;;12.60;4.75;;;8.60;99.90;;;;;;4879054;29;20434;-88
2022/04/15 02:20:19;;;;;;;14.23;4.60;;;8.60;99.90;;;;;;4895535;29;20557;-88
2022/04/15 02:22:45;;;;;;;14.48;4.75;;;8.60;99.90;;;;;;4878603;29;20036;-88
2022/04/15 02:25:11;;;;;;;13.60;4.35;;;8.60;99.90;;;;;;4861265;29;20063;-88
2022/04/15 02:27:36;;;;;;;14.15;4.55;;;8.60;99.90;;;;;;4870996;29;20048;-87
2022/04/15 02:30:03;;;;;;;14.65;4.88;;;8.60;99.90;;;;;;4864323;29;20055;-88
2022/04/15 02:32:30;;;;;;;14.95;5.05;;;8.60;99.90;;;;;;4897789;29;20558;-88
2022/04/15 02:34:56;;;;;;;15.27;5.15;;;9.00;99.90;;;;;;4847920;29;20072;-88
2022/04/15 02:37:21;;;;;;;17.13;7.22;;;8.60;99.90;;;;;;4862680;29;20134;-88
2022/04/15 02:39:49;;;;;;;16.25;7.82;;;9.40;99.90;;;;;;4879842;29;20120;-87
2022/04/15 02:42:15;;;;;;;16.27;7.88;;;8.60;99.90;;;;;;4848130;29;20041;-88
2022/04/15 02:44:40;;;;;;;15.57;9.05;;;9.50;99.90;;;;;;4878837;29;20052;-87
2022/04/15 02:47:07;;;;;;;15.20;8.82;;;8.50;99.90;;;;;;4877042;29;20040;-88
2022/04/15 02:49:33;;;;;;;15.98;9.13;;;8.50;99.90;;;;;;4873750;29;20115;-88
2022/04/15 02:51:59;;;;;;;14.00;8.57;;;8.50;99.90;;;;;;4877860;29;20447;-88
2022/04/15 02:54:24;;;;;;;15.23;8.68;;;8.70;99.90;;;;;;4882482;29;20065;-88
2022/04/15 02:56:50;;;;;;;15.82;8.63;;;8.40;99.90;;;;;;4877386;29;20040;-87
2022/04/15 02:59:16;;;;;;;16.02;8.98;;;8.60;99.90;;;;;;4893276;29;20041;-87
2022/04/15 03:01:44;;;;;;;15.80;8.63;;;8.50;99.90;;;;;;4874537;29;20116;-87
2022/04/15 03:04:10;;;;;;;14.98;8.18;;;9.30;99.90;;;;;;4896976;29;20052;-88
2022/04/15 03:06:35;;;;;;;12.18;7.15;;;8.30;99.90;;;;;;4877882;29;20048;-88
2022/04/15 03:09:02;;;;;;;12.25;7.10;;;8.40;99.90;;;;;;4877270;29;20096;-88
2022/04/15 03:11:27;;;;;;;12.32;6.47;;;8.30;99.90;;;;;;4889680;29;20047;-87
2022/04/15 03:13:53;;;;;;;11.93;5.90;;;8.30;99.90;;;;;;4878493;29;20048;-87
2022/04/15 03:16:19;;;;;;;11.27;5.82;;;8.40;99.90;;;;;;4890342;29;20135;-87
2022/04/15 03:18:45;;;;;;;11.30;5.15;;;8.20;99.90;;;;;;4863146;29;20048;-87
2022/04/15 03:21:11;;;;;;;10.02;5.30;;;8.10;99.90;;;;;;4877379;29;20037;-89
2022/04/15 03:23:37;;;;;;;12.07;5.60;;;8.60;99.90;;;;;;4858958;29;20411;-88
2022/04/15 03:26:03;;;;;;;10.35;5.18;;;8.00;99.90;;;;;;4877129;29;20578;-88
2022/04/15 03:28:29;;;;;;;10.30;5.05;;;8.10;99.90;;;;;;4877101;29;20123;-88
2022/04/15 03:30:54;;;;;;;9.57;5.03;;;7.90;99.90;;;;;;4876351;29;20036;-88
2022/04/15 03:33:20;;;;;;;10.18;5.22;;;7.80;99.90;;;;;;4874795;29;20188;-87
2022/04/15 03:35:46;;;;;;;10.05;4.47;;;7.80;99.90;;;;;;4883343;29;20051;-88
2022/04/15 03:38:11;;;;;;;10.50;4.53;;;7.70;99.90;;;;;;4846091;29;20040;-88
2022/04/15 03:40:37;;;;;;;10.23;4.22;;;7.70;99.90;;;;;;4878116;29;20037;-87
2022/04/15 03:43:04;;;;;;;8.52;4.30;;;8.00;99.90;;;;;;4878525;29;20044;-87
2022/04/15 03:45:30;;;;;;;9.88;4.43;;;7.90;99.90;;;;;;4877311;29;20072;-87
2022/04/15 03:47:57;;;;;;;10.00;4.93;;;9.10;99.90;;;;;;4875637;29;20079;-88
2022/04/15 03:50:23;;;;;;;9.65;5.00;;;7.60;99.90;;;;;;4877486;29;20040;-88
2022/04/15 03:52:49;;;;;;;10.95;4.97;;;7.60;99.90;;;;;;4846056;29;20505;-88
2022/04/15 03:55:18;;;;;;;9.57;4.88;;;8.10;99.90;;;;;;4898368;29;20064;-88
2022/04/15 03:57:44;;;;;;;9.80;4.38;;;7.60;99.90;;;;;;4876904;29;20092;-88
2022/04/15 04:00:18;;;;;;;9.98;5.00;;;7.60;99.90;;;;;;4863470;29;20040;-88
2022/04/15 04:02:53;;;;;;;9.00;4.50;;;7.60;99.90;;;;;;4908163;29;20494;-87
2022/04/15 04:05:20;;;;;;;9.77;4.70;;;7.60;99.90;;;;;;4878716;29;20079;-88
2022/04/15 04:07:46;;;;;;;9.05;3.95;;;7.60;99.90;;;;;;4891138;29;20285;-88
2022/04/15 04:10:13;;;;;;;10.88;3.88;;;7.70;99.90;;;;;;4875712;29;20043;-87
2022/04/15 04:12:39;;;;;;;9.27;4.22;;;7.60;99.90;;;;;;4891346;29;20119;-88
2022/04/15 04:15:07;;;;;;;9.50;4.07;;;8.30;99.90;;;;;;4893711;29;20040;-87
2022/04/15 04:17:32;;;;;;;9.45;4.43;;;7.60;99.90;;;;;;4891972;29;20040;-87
2022/04/15 04:19:58;;;;;;;9.88;4.60;;;7.70;99.90;;;;;;4877990;29;20495;-89
2022/04/15 04:22:34;;;;;;;9.32;4.60;;;7.70;99.90;;;;;;4860331;29;20049;-87
2022/04/15 04:25:01;;;;;;;12.10;5.00;;;7.70;99.90;;;;;;4891929;29;20104;-87
2022/04/15 04:27:27;;;;;;;12.23;5.25;;;7.70;99.90;;;;;;4876065;29;20418;-87
2022/04/15 04:29:53;;;;;;;9.88;4.90;;;7.70;99.90;;;;;;4855897;29;20052;-87
2022/04/15 04:32:19;;;;;;;9.70;4.65;;;7.70;99.90;;;;;;4909265;29;20036;-86
2022/04/15 04:34:45;;;;;;;9.63;4.30;;;7.60;99.90;;;;;;4891453;29;20119;-88
2022/04/15 04:37:11;;;;;;;8.18;3.85;;;8.00;99.90;;;;;;4893242;29;20041;-87
2022/04/15 04:39:37;;;;;;;9.93;3.90;;;8.70;99.90;;;;;;4860520;29;20044;-88
2022/04/15 04:42:03;;;;;;;8.73;3.42;;;7.60;99.90;;;;;;4893734;29;20041;-88
2022/04/15 04:44:31;;;;;;;10.45;3.70;;;7.50;99.90;;;;;;4877610;29;20059;-87
2022/04/15 04:46:58;;;;;;;10.35;3.35;;;7.50;99.90;;;;;;4899330;29;20044;-89
2022/04/15 04:49:24;;;;;;;9.80;4.38;;;7.50;99.90;;;;;;4871849;29;20043;-88
2022/04/15 04:51:50;;;;;;;9.23;4.18;;;7.50;99.90;;;;;;4875900;29;20041;-88
2022/04/15 04:54:16;;;;;;;9.65;4.80;;;8.10;99.90;;;;;;4875506;29;20037;-87
2022/04/15 04:56:41;;;;;;;12.10;4.70;;;7.50;99.90;;;;;;4878694;29;20049;-88
2022/04/15 04:59:07;;;;;;;9.75;4.75;;;8.10;99.90;;;;;;4877074;29;20048;-87
2022/04/15 05:01:33;;;;;;;11.45;4.88;;;7.60;99.90;;;;;;4905325;29;20293;-87
2022/04/15 05:03:59;;;;;;;10.05;5.40;;;8.10;99.90;;;;;;4892160;29;20085;-87
2022/04/15 05:06:24;;;;;;;9.95;5.05;;;7.60;99.90;;;;;;4874156;29;20052;-89
2022/04/15 05:08:50;;;;;;;13.60;4.93;;;7.60;99.90;;;;;;4890374;29;20041;-88
2022/04/15 05:11:16;;;;;;;9.95;4.72;;;7.50;99.90;;;;;;4891115;29;20486;-88
2022/04/15 05:13:42;;;;;;;9.55;4.38;;;7.60;99.90;;;;;;4905803;29;20410;-90
2022/04/15 05:16:07;;;;;;;9.55;4.60;;;7.50;99.90;;;;;;4877469;29;20040;-88
2022/04/15 05:18:34;;;;;;;10.50;4.57;;;8.10;99.90;;;;;;4856958;29;20044;-89
2022/04/15 05:21:01;;;;;;;9.10;4.45;;;7.60;99.90;;;;;;4874718;29;20040;-88
2022/04/15 05:23:26;;;;;;;9.23;4.20;;;7.50;99.90;;;;;;4893787;29;20529;-88
2022/04/15 05:25:52;;;;;;;11.65;4.82;;;7.50;99.90;;;;;;4877092;29;20040;-88
2022/04/15 05:28:18;;;;;;;10.18;4.63;;;7.50;99.90;;;;;;4860955;29;20037;-88
2022/04/15 05:30:44;;;;;;;11.57;5.03;;;7.50;99.90;;;;;;4879452;29;20044;-88
2022/04/15 05:33:09;;;;;;;11.07;5.10;;;7.60;99.90;;;;;;4875773;29;20048;-88
2022/04/15 05:35:35;;;;;;;11.82;5.45;;;7.50;99.90;;;;;;4860771;29;20123;-88
2022/04/15 05:38:01;;;;;;;12.57;5.47;;;7.50;99.90;;;;;;4887046;29;20036;-87
2022/04/15 05:40:28;;;;;;;11.38;6.03;;;7.40;99.90;;;;;;4881202;29;20071;-88
2022/04/15 05:42:54;;;;;;;12.43;6.13;;;7.60;99.90;;;;;;4878169;29;20616;-88
2022/04/15 05:45:20;;;;;;;12.63;6.07;;;7.60;99.90;;;;;;4874498;29;20090;-88
2022/04/15 05:47:46;;;;;;;11.95;5.88;;;8.50;99.90;;;;;;4890142;29;20079;-88
2022/04/15 05:50:11;;;;;;;12.40;6.85;;;7.50;99.90;;;;;;4875448;29;20176;-87
2022/04/15 05:52:37;;;;;;;12.90;7.13;;;7.50;99.90;;;;;;4875233;29;20041;-88
2022/04/15 05:55:03;;;;;;;14.38;7.82;;;7.50;99.90;;;;;;4880420;29;20047;-87
2022/04/15 05:57:32;;;;;;;14.63;7.35;;;7.50;99.90;;;;;;4899632;29;20622;-88
2022/04/15 05:59:58;;;;;;;13.65;7.72;;;8.80;99.90;;;;;;4859544;29;20048;-88
2022/04/15 06:02:26;;;;;;;13.20;7.05;;;7.50;99.90;;;;;;4907231;29;20595;-88
2022/04/15 06:04:52;;;;;;;15.15;7.32;;;7.60;99.90;;;;;;4875510;29;20056;-88
2022/04/15 06:07:18;;;;;;;12.82;7.40;;;7.60;99.90;;;;;;4869843;29;20071;-88
2022/04/15 06:09:43;;;;;;;16.10;8.35;;;8.20;99.90;;;;;;4877690;29;20052;-88
2022/04/15 06:12:09;;;;;;;16.33;8.48;;;7.80;99.90;;;;;;4871705;29;20127;-88
2022/04/15 06:14:36;;;;;;;14.52;8.20;;;7.70;99.90;;;;;;4874514;29;20178;-87
2022/04/15 06:17:03;;;;;;;15.40;8.77;;;7.70;99.90;;;;;;4888982;29;20104;-87
2022/04/15 06:19:28;;;;;;;16.63;8.13;;;7.80;99.90;;;;;;4874742;29;20159;-89
2022/04/15 06:21:54;;;;;;;15.00;8.48;;;7.80;99.90;;;;;;4869016;29;20163;-89
2022/04/15 06:24:20;;;;;;;18.40;9.85;;;7.80;99.90;;;;;;4874774;29;20037;-88
2022/04/15 06:26:46;;;;;;;21.55;10.10;;;7.80;99.90;;;;;;4894392;29;20044;-89
2022/04/15 06:29:11;;;;;;;17.50;10.63;;;7.90;99.90;;;;;;4873514;29;20032;-88
2022/04/15 06:31:37;;;;;;;21.42;10.98;;;8.70;99.90;;;;;;4885859;29;20051;-88
2022/04/15 06:34:03;;;;;;;20.88;10.25;;;7.90;99.90;;;;;;4891556;29;20048;-91
2022/04/15 06:36:29;;;;;;;20.27;10.68;;;8.00;99.90;;;;;;4894763;29;20104;-85
2022/04/15 06:38:55;;;;;;;21.20;10.65;;;8.00;99.90;;;;;;4881627;29;20068;-82
2022/04/15 06:41:20;;;;;;;21.10;10.50;;;8.40;99.90;;;;;;4895737;29;20048;-83
2022/04/15 06:43:46;;;;;;;18.27;10.07;;;8.00;99.90;;;;;;4862140;29;20037;-83
2022/04/15 06:46:12;;;;;;;21.13;11.32;;;8.10;99.90;;;;;;4892853;29;20049;-83
2022/04/15 06:48:37;;;;;;;19.30;10.85;;;8.20;99.90;;;;;;4876999;29;20065;-82
2022/04/15 06:53:39;;;;;;;22.52;11.30;;;8.20;99.90;;;;;;5065051;23;20091;-89
2022/04/15 06:56:05;;;;;;;21.75;10.65;;;8.20;99.90;;;;;;4945898;28;20415;-87
2022/04/15 06:58:31;;;;;;;21.55;11.38;;;8.20;99.90;;;;;;4955835;28;20078;-88
2022/04/15 07:00:57;;;;;;;18.88;10.77;;;8.30;99.90;;;;;;4956451;28;20035;-89
2022/04/15 07:03:24;;;;;;;20.30;10.35;;;8.30;99.90;;;;;;4938926;28;20126;-89
2022/04/15 07:05:50;;;;;;;19.48;10.50;;;8.40;99.90;;;;;;4956748;28;20395;-89
2022/04/15 07:08:16;;;;;;;18.77;10.00;;;8.30;99.90;;;;;;4957943;28;20043;-90
2022/04/15 07:10:42;;;;;;;20.05;9.57;;;8.40;99.90;;;;;;4954732;28;20066;-85
2022/04/15 07:13:08;;;;;;;21.10;9.82;;;8.40;99.90;;;;;;4968362;28;20153;-85
2022/04/15 07:15:33;;;;;;;22.50;9.18;;;8.50;99.90;;;;;;4955676;28;20106;-87
2022/04/15 07:18:03;;;;;;;15.50;8.48;;;8.50;99.90;;;;;;4953959;28;20530;-88
2022/04/15 07:20:29;;;;;;;17.40;7.85;;;8.50;99.90;;;;;;4956599;28;20053;-88
2022/04/15 07:22:59;;;;;;;15.32;7.70;;;8.60;99.90;;;;;;4954260;28;20035;-88
2022/04/15 07:25:25;;;;;;;16.83;8.52;;;8.60;99.90;;;;;;4972155;28;20035;-88
2022/04/15 07:27:53;;;;;;;17.25;8.18;;;8.60;99.90;;;;;;4952378;28;20119;-87
2022/04/15 07:30:19;;;;;;;14.40;7.63;;;8.60;99.90;;;;;;4955987;28;20045;-88
2022/04/15 07:32:44;;;;;;;15.60;7.63;;;8.70;99.90;;;;;;4954658;28;20047;-88
2022/04/15 07:35:10;;;;;;;14.77;7.10;;;8.70;99.90;;;;;;4965911;28;20034;-87
2022/04/15 07:37:36;;;;;;;16.08;6.40;;;8.70;99.90;;;;;;4948806;28;20042;-89
2022/04/15 07:40:02;;;;;;;10.57;5.30;;;10.40;99.90;;;;;;4951902;28;20071;-87
2022/04/15 07:42:28;;;;;;;12.18;5.30;;;8.70;99.90;;;;;;4951819;28;20456;-87
2022/04/15 07:44:54;;;;;;;11.07;5.57;;;;;;;;;;4953041;28;20101;-87
2022/04/15 07:47:20;;;;;;;12.70;5.53;;;8.90;99.90;;;;;;4953491;28;20391;-88
2022/04/15 07:49:46;;;;;;;12.32;5.50;;;8.90;99.90;;;;;;4969587;28;20050;-88
2022/04/15 07:52:11;;;;;;;11.98;5.60;;;10.40;99.90;;;;;;4946432;28;20230;-87
2022/04/15 07:54:37;;;;;;;11.77;6.22;;;8.90;99.90;;;;;;4934516;29;20047;-88
2022/04/15 07:57:03;;;;;;;12.70;6.20;;;9.00;99.90;;;;;;4950258;28;20051;-87
2022/04/15 07:59:29;;;;;;;13.82;6.03;;;8.40;99.90;;;;;;4944535;28;20047;-88
2022/04/15 08:01:55;;;;;;;15.90;5.90;;;9.20;99.90;;;;;;4938017;28;20121;-87
2022/04/15 08:04:21;;;;;;;12.20;6.07;;;9.30;99.90;;;;;;4932016;29;20104;-88
2022/04/15 08:06:47;;;;;;;9.98;5.40;;;9.20;99.90;;;;;;4949995;28;20055;-88
2022/04/15 08:09:13;;;;;;;13.38;6.05;;;9.90;99.90;;;;;;4933878;29;20067;-87
2022/04/15 08:11:38;;;;;;;11.75;5.82;;;9.40;99.90;;;;;;4950395;28;20063;-87
2022/04/15 08:14:05;;;;;;;12.27;5.75;;;9.50;99.90;;;;;;4935861;29;20050;-88
2022/04/15 08:16:30;;;;;;;11.60;5.50;;;9.60;99.90;;;;;;4938305;29;20255;-88
2022/04/15 08:18:56;;;;;;;13.82;5.45;;;9.70;99.90;;;;;;4924007;29;20069;-87
2022/04/15 08:21:23;;;;;;;13.73;5.72;;;9.80;99.90;;;;;;4907315;29;20063;-87
2022/04/15 08:23:49;;;;;;;12.80;5.80;;;9.80;99.90;;;;;;4955804;28;20047;-87
2022/04/15 08:26:15;;;;;;;11.68;5.95;;;9.80;99.90;;;;;;4924997;29;20035;-88
2022/04/15 08:28:41;;;;;;;12.63;5.30;;;9.80;99.90;;;;;;4957540;28;20062;-88
2022/04/15 08:31:08;;;;;;;11.68;5.43;;;10.10;99.90;;;;;;4939444;28;20058;-88
2022/04/15 08:33:35;;;;;;;13.80;5.50;;;10.10;99.90;;;;;;4929432;29;20039;-87
2022/04/15 08:36:01;;;;;;;11.20;5.63;;;10.00;99.90;;;;;;4949241;29;20048;-89
2022/04/15 08:38:27;;;;;;;14.30;6.00;;;10.00;99.90;;;;;;4956519;28;20034;-87
2022/04/15 08:40:56;;;;;;;11.23;5.40;;;9.90;99.90;;;;;;4942514;28;20039;-86
2022/04/15 08:43:22;;;;;;;11.13;5.57;;;9.80;99.90;;;;;;4951928;28;20787;-87
2022/04/15 08:45:48;;;;;;;10.77;5.57;;;9.70;99.90;;;;;;4940872;28;20043;-89
2022/04/15 08:48:15;;;;;;;11.65;5.22;;;10.00;99.90;;;;;;4953166;28;20039;-86
2022/04/15 08:50:41;;;;;;;12.05;5.20;;;9.80;99.90;;;;;;4937831;28;20035;-88
2022/04/15 08:53:08;;;;;;;11.80;5.40;;;9.80;99.90;;;;;;4934043;29;20055;-86
2022/04/15 08:55:34;;;;;;;10.93;5.85;;;9.90;99.90;;;;;;4930954;28;20142;-88
2022/04/15 08:58:00;;;;;;;15.32;6.05;;;10.00;99.90;;;;;;4950031;28;20150;-88
2022/04/15 09:00:27;;;;;;;13.15;5.90;;;10.00;99.90;;;;;;4931253;29;20035;-88
2022/04/15 09:02:54;;;;;;;13.98;5.70;;;10.10;99.90;;;;;;4945590;28;20098;-84
2022/04/15 09:05:26;;;;;;;11.05;5.43;;;10.30;99.90;;;;;;4945977;28;20109;-83
2022/04/15 09:08:04;;;;;;;12.48;5.47;;;10.20;99.90;;;;;;4945949;29;20035;-84
2022/04/15 09:10:31;;;;;;;13.45;6.28;;;10.30;99.90;;;;;;4941954;28;20118;-80
2022/04/15 09:12:57;;;;;;;13.15;6.00;;;10.70;99.90;;;;;;4946731;29;20039;-81
2022/04/15 09:15:23;;;;;;;11.90;5.82;;;10.50;99.90;;;;;;4948691;28;20086;-81
2022/04/15 09:17:52;;;;;;;13.65;6.30;;;10.70;99.90;;;;;;4900432;29;20512;-81
2022/04/15 09:20:19;;;;;;;13.10;5.50;;;11.00;99.90;;;;;;4930260;28;20050;-81
2022/04/15 09:22:45;;;;;;;11.23;5.28;;;11.10;99.90;;;;;;4930938;29;20043;-82
2022/04/15 09:25:12;;;;;;;14.20;6.03;;;11.10;99.90;;;;;;4916314;29;20086;-82
2022/04/15 09:27:38;;;;;;;12.73;5.75;;;11.10;99.90;;;;;;4946582;28;20118;-82
2022/04/15 09:30:05;;;;;;;12.65;5.50;;;11.00;99.90;;;;;;4951360;28;20110;-83
2022/04/15 09:32:31;;;;;;;10.25;4.93;;;10.90;99.90;;;;;;4928989;28;20035;-83
2022/04/15 09:35:08;;;;;;;12.73;5.40;;;10.80;99.90;;;;;;4946323;28;20130;-82
2022/04/15 09:37:39;;;;;;;12.00;5.68;;;10.70;99.90;;;;;;4946706;28;20403;-84
2022/04/15 09:40:17;;;;;;;13.80;6.00;;;10.70;99.90;;;;;;4947555;28;20500;-82
2022/04/15 09:42:51;;;;;;;12.85;5.30;;;10.80;99.90;;;;;;4932691;28;20039;-81
2022/04/15 09:45:24;;;;;;;13.32;6.10;;;10.90;99.90;;;;;;4964756;28;20683;-81
2022/04/15 09:47:50;;;;;;;;;;;10.90;99.90;;;;;;4947512;28;20055;-81
2022/04/15 09:50:22;;;;;;;12.35;5.72;;;10.90;99.90;;;;;;4948095;28;20351;-81
2022/04/15 09:52:50;;;;;;;13.35;6.05;;;10.90;99.90;;;;;;4931011;29;20055;-82
2022/04/15 09:55:19;;;;;;;13.35;6.40;;;10.80;99.90;;;;;;4932839;28;20463;-82
2022/04/15 09:57:50;;;;;;;13.60;5.95;;;10.80;99.90;;;;;;4933244;29;20093;-83
2022/04/15 10:00:18;;;;;;;12.38;5.80;;;10.80;99.90;;;;;;4932568;28;20091;-84
2022/04/15 10:02:44;;;;;;;11.30;5.90;;;10.80;99.90;;;;;;4930626;29;20467;-84
2022/04/15 10:05:13;;;;;;;12.15;5.47;;;10.80;99.90;;;;;;4951538;28;21043;-84
2022/04/15 10:07:42;;;;;;;10.30;5.00;;;10.90;99.90;;;;;;4947179;28;20039;-82
2022/04/15 10:10:10;;;;;;;11.38;5.40;;;10.80;99.90;;;;;;4936149;28;20396;-83
2022/04/15 10:12:39;;;;;;;12.40;6.15;;;10.70;99.90;;;;;;4935256;28;20163;-84
2022/04/15 10:15:09;;;;;;;12.88;6.18;;;10.70;99.90;;;;;;4938024;29;20031;-85
2022/04/15 10:17:39;;;;;;;14.57;6.18;;;10.60;99.90;;;;;;4952722;28;20102;-84
2022/04/15 10:20:07;;;;;;;12.38;6.18;;;11.00;99.90;;;;;;4935229;29;20078;-83
2022/04/15 10:22:37;;;;;;;11.20;5.75;;;10.60;99.90;;;;;;4951886;28;20043;-84
2022/04/15 10:25:06;;;;;;;11.60;6.32;;;10.70;99.90;;;;;;4935345;29;20329;-84
2022/04/15 10:27:32;;;;;;;10.15;5.10;;;10.70;99.90;;;;;;4952516;28;20046;-84
2022/04/15 10:30:19;;;;;;;10.38;5.40;;;11.40;99.90;;;;;;4935984;28;20081;-84
2022/04/15 10:32:54;;;;;;;11.45;5.63;;;10.70;99.90;;;;;;4950783;29;20055;-84
2022/04/15 10:35:29;;;;;;;12.90;6.63;;;10.70;99.90;;;;;;4935335;28;20035;-85
2022/04/15 10:38:08;;;;;;;11.25;5.43;;;10.80;99.90;;;;;;4934842;29;20569;-84
2022/04/15 10:40:35;;;;;;;11.70;5.47;;;10.80;99.90;;;;;;4947660;28;20035;-84
2022/04/15 10:43:29;;;;;;;10.38;5.15;;;10.80;99.90;;;;;;4937775;28;20042;-84
2022/04/15 10:46:14;;;;;;;9.82;5.10;;;10.80;99.90;;;;;;4919807;29;20065;-84
2022/04/15 10:48:41;;;;;;;12.63;5.80;;;11.40;99.90;;;;;;4934815;29;20432;-83
2022/04/15 10:51:24;;;;;;;11.60;5.40;;;10.60;99.90;;;;;;4920594;28;20031;-85
2022/04/15 10:53:50;;;;;;;;;;;10.60;99.90;;;;;;4919688;28;20193;-84
2022/04/15 10:56:18;;;;;;;11.63;5.10;;;10.40;99.90;;;;;;4949724;28;20001;-86
2022/04/15 11:01:33;;;;;;;11.57;5.78;;;10.30;99.90;;;;;;4952123;28;20538;-86
2022/04/15 11:04:04;;;;;;;11.18;5.90;;;10.30;99.90;;;;;;4935326;29;20065;-84
2022/04/15 11:06:30;;;;;;;11.18;5.88;;;10.30;99.90;;;;;;4950810;28;20039;-85
2022/04/15 11:08:56;;;;;;;11.85;5.88;;;10.30;99.90;;;;;;4946176;28;20102;-85
2022/04/15 11:11:36;;;;;;;13.95;6.25;;;10.20;99.90;;;;;;4935864;29;20526;-86
2022/04/15 11:14:04;;;;;;;11.35;5.97;;;10.30;99.90;;;;;;4951016;28;20031;-85
2022/04/15 11:16:41;;;;;;;11.50;5.55;;;10.30;99.90;;;;;;4950972;28;20050;-84
2022/04/15 11:19:08;;;;;;;10.70;5.85;;;10.30;99.90;;;;;;4934330;28;20495;-82
2022/04/15 11:21:37;;;;;;;12.13;6.43;;;10.30;99.90;;;;;;4934347;29;20412;-84
2022/04/15 11:24:07;;;;;;;13.10;5.97;;;10.30;99.90;;;;;;4950561;28;20051;-84
2022/04/15 11:26:35;;;;;;;11.98;6.20;;;10.30;99.90;;;;;;4935978;29;20500;-82
2022/04/15 11:29:02;;;;;;;12.35;5.50;;;10.40;99.90;;;;;;4934210;29;20050;-83
2022/04/15 11:31:32;;;;;;;11.55;5.55;;;10.40;99.90;;;;;;4933454;29;20039;-82
2022/04/15 11:34:16;;;;;;;10.60;5.40;;;10.40;99.90;;;;;;4906190;29;20224;-83
2022/04/15 11:36:45;;;;;;;;;;;10.50;99.90;;;;;;4928465;28;20500;-87
2022/04/15 11:39:16;;;;;;;10.98;5.43;;;10.40;99.90;;;;;;4947261;28;19951;-83
2022/04/15 11:41:47;;;;;;;12.10;5.90;;;10.40;99.90;;;;;;4934503;29;20071;-83
2022/04/15 11:44:14;;;;;;;12.85;5.28;;;10.50;99.90;;;;;;4944782;29;20043;-83
2022/04/15 11:46:46;;;;;;;11.40;5.43;;;10.50;99.90;;;;;;4942504;28;20094;-82
2022/04/15 11:49:12;;;;;;;11.30;5.60;;;10.50;99.90;;;;;;4949168;29;20038;-81
2022/04/15 11:51:38;;;;;;;11.35;5.30;;;10.40;99.90;;;;;;4934268;28;20047;-83
2022/04/15 11:54:04;;;;;;;11.70;4.90;;;10.40;99.90;;;;;;4949519;28;20110;-81
2022/04/15 11:56:33;;;;;;;12.05;5.88;;;10.30;99.90;;;;;;4932941;29;20139;-83
2022/04/15 11:58:59;;;;;;;14.10;5.63;;;10.40;99.90;;;;;;4921833;29;20777;-81
2022/04/15 12:01:27;;;;;;;13.40;5.85;;;10.40;99.90;;;;;;4916972;28;20078;-82
2022/04/15 12:03:52;;;;;;;14.75;5.97;;;10.30;99.90;;;;;;4935618;29;20043;-82
2022/04/15 12:06:18;;;;;;;10.88;5.63;;;10.30;99.90;;;;;;4917815;29;20110;-83
2022/04/15 12:08:44;;;;;;;10.73;5.65;;;10.30;99.90;;;;;;4918700;29;20054;-83
2022/04/15 12:11:11;;;;;;;12.98;5.90;;;10.40;99.90;;;;;;4933607;29;20086;-84
2022/04/15 12:13:37;;;;;;;12.23;5.70;;;10.30;99.90;;;;;;4934578;28;20098;-83
2022/04/15 12:16:04;;;;;;;13.82;6.20;;;10.40;99.90;;;;;;4918433;29;20165;-82
2022/04/15 12:18:30;;;;;;;12.63;5.93;;;10.40;99.90;;;;;;4948555;28;20710;-83
2022/04/15 12:20:56;;;;;;;64.30;13.55;;;10.40;99.90;;;;;;4947725;29;20063;-81
2022/04/15 12:23:24;;;;;;;12.60;6.05;;;10.50;99.90;;;;;;4935878;29;20043;-82
2022/04/15 12:26:07;;;;;;;11.23;5.15;;;10.50;99.90;;;;;;4950741;28;20530;-83
2022/04/15 12:31:33;;;;;;;11.80;5.82;;;10.60;99.90;;;;;;4936653;29;20353;-83
2022/04/15 12:34:02;;;;;;;11.82;5.90;;;10.60;99.90;;;;;;4930595;29;20088;-82
2022/04/15 12:36:45;;;;;;;11.43;6.13;;;10.60;99.90;;;;;;4933778;28;20046;-82
2022/04/15 12:39:13;;;;;;;10.30;5.13;;;10.60;99.90;;;;;;4933462;29;20035;-82
2022/04/15 12:41:46;;;;;;;13.15;6.03;;;10.60;99.90;;;;;;4933760;29;20178;-83
2022/04/15 12:44:27;;;;;;;12.95;5.68;;;10.70;99.90;;;;;;4932663;29;20114;-82
2022/04/15 12:47:02;;;;;;;12.43;5.68;;;10.80;99.90;;;;;;4933705;28;20051;-83
2022/04/15 12:49:36;;;;;;;11.57;5.53;;;10.80;99.90;;;;;;4949322;28;20031;-85
2022/04/15 12:52:11;;;;;;;12.75;6.28;;;10.80;99.90;;;;;;4949359;28;20491;-84
2022/04/15 12:54:59;;;;;;;10.95;5.32;;;10.80;99.90;;;;;;4949809;28;20039;-85